Time;durP1;ratioP1;P1;durP2;ratioP2;P2;SDS_P1;SDS_P2;PMS_P1;PMS_P2;Temp;Humidity;BMP_temperature;BMP_pressure;BME280_temperature;BME280_humidity;BME280_pressure;Samples;Min_cycle;Max_cycle;Signal;HPM_P1;HPM_P2
2023/06/05 00:00:16;;;;;;;3.47;1.73;;;;;;;11.67;73.06;98652.00;2607900;28;20052;-82
2023/06/05 00:01:51;;;;;;;3.08;1.45;;;;;;;11.58;73.47;98642.63;2613066;28;20081;-83
2023/06/05 00:03:07;;;;;;;2.25;1.42;;;;;;;11.60;72.99;98643.47;2612154;28;20053;-81
2023/06/05 00:04:23;;;;;;;2.55;1.60;;;;;;;11.78;71.39;98647.28;2613814;28;20710;-82
2023/06/05 00:05:39;;;;;;;2.83;1.75;;;;;;;11.71;71.94;98640.53;2613184;28;20067;-81
2023/06/05 00:06:56;;;;;;;1.98;1.45;;;;;;;11.82;72.38;98645.44;2614525;28;20045;-81
2023/06/05 00:08:12;;;;;;;3.45;1.73;;;;;;;11.76;73.95;98649.09;2612939;28;20493;-82
2023/06/05 00:09:27;;;;;;;3.42;1.70;;;;;;;11.63;73.60;98648.63;2613829;28;20048;-82
2023/06/05 00:10:43;;;;;;;3.63;1.60;;;;;;;11.79;72.46;98642.91;2612473;28;20687;-82
2023/06/05 00:11:58;;;;;;;2.45;1.30;;;;;;;11.75;71.71;98646.53;2612140;28;20408;-82
2023/06/05 00:13:15;;;;;;;2.58;1.60;;;;;;;11.72;72.71;98643.06;2611695;28;20107;-82
2023/06/05 00:14:30;;;;;;;2.70;1.70;;;;;;;11.77;72.00;98645.56;2614310;28;20105;-81
2023/06/05 00:15:47;;;;;;;3.88;1.60;;;;;;;11.80;71.34;98639.38;2612584;28;20106;-82
2023/06/05 00:17:03;;;;;;;2.65;1.80;;;;;;;11.89;69.93;98639.13;2613239;28;20111;-81
2023/06/05 00:18:19;;;;;;;3.83;1.70;;;;;;;11.83;72.45;98644.53;2613576;28;20068;-82
2023/06/05 00:19:34;;;;;;;2.65;1.88;;;;;;;11.69;74.49;98637.09;2614158;28;20056;-84
2023/06/05 00:20:50;;;;;;;3.50;1.77;;;;;;;11.61;73.94;98637.31;2614294;28;20483;-81
2023/06/05 00:22:05;;;;;;;4.05;1.60;;;;;;;11.67;73.38;98645.00;2611990;28;20083;-81
2023/06/05 00:23:21;;;;;;;4.40;1.90;;;;;;;11.69;73.88;98640.56;2601282;28;20076;-81
2023/06/05 00:24:39;;;;;;;2.58;1.70;;;;;;;11.71;72.99;98643.97;2605645;28;20084;-82
2023/06/05 00:25:54;;;;;;;4.47;1.70;;;;;;;11.77;72.59;98636.84;2611755;28;20045;-82
2023/06/05 00:27:10;;;;;;;2.63;1.70;;;;;;;11.47;75.39;98637.69;2614503;28;20416;-82
2023/06/05 00:28:28;;;;;;;3.85;2.00;;;;;;;11.53;75.11;98650.66;2611746;28;20492;-82
2023/06/05 00:29:44;;;;;;;3.92;1.77;;;;;;;11.53;74.45;98637.53;2614473;28;20114;-82
2023/06/05 00:31:01;;;;;;;3.60;1.73;;;;;;;11.55;74.01;98645.34;2612837;28;20507;-81
2023/06/05 00:32:16;;;;;;;2.35;1.52;;;;;;;11.65;73.33;98641.56;2611382;28;20060;-81
2023/06/05 00:33:32;;;;;;;3.17;1.90;;;;;;;11.67;72.59;98639.75;2613523;28;20052;-81
2023/06/05 00:34:49;;;;;;;4.43;1.88;;;;;;;11.47;76.73;98642.09;2611935;28;20071;-82
2023/06/05 00:36:05;;;;;;;4.00;1.70;;;;;;;11.55;76.30;98645.34;2613917;28;20045;-81
2023/06/05 00:37:21;;;;;;;2.72;1.80;;;;;;;11.62;73.76;98644.28;2611911;28;20052;-82
2023/06/05 00:38:36;;;;;;;2.45;1.63;;;;;;;11.69;75.34;98637.94;2612115;28;20416;-82
2023/06/05 00:39:52;;;;;;;2.50;1.83;;;;;;;11.68;77.07;98640.63;2615584;28;20076;-82
2023/06/05 00:41:08;;;;;;;2.80;1.98;;;;;;;11.72;75.56;98640.47;2614360;28;20508;-82
2023/06/05 00:42:23;;;;;;;2.45;1.38;;;;;;;11.65;76.80;98638.94;2613555;28;20074;-81
2023/06/05 00:43:40;;;;;;;3.10;1.77;;;;;;;11.62;78.63;98640.78;2614721;28;20045;-81
2023/06/05 00:44:55;;;;;;;3.08;1.70;;;;;;;11.64;77.98;98645.09;2611801;28;20045;-84
2023/06/05 00:46:12;;;;;;;2.28;1.48;;;;;;;11.71;76.11;98643.97;2613404;28;20079;-81
2023/06/05 00:47:28;;;;;;;3.17;1.80;;;;;;;11.81;75.07;98646.34;2602403;28;20148;-83
2023/06/05 00:48:46;;;;;;;2.80;1.50;;;;;;;11.83;76.39;98645.41;2606426;28;20060;-82
2023/06/05 00:50:03;;;;;;;1.88;1.58;;;;;;;11.80;76.20;98645.47;2613389;28;20064;-82
2023/06/05 00:51:20;;;;;;;3.40;1.70;;;;;;;11.77;77.24;98639.47;2611551;28;20048;-82
2023/06/05 00:52:36;;;;;;;2.80;1.70;;;;;;;11.78;76.88;98635.94;2613873;28;20086;-81
2023/06/05 00:53:51;;;;;;;3.95;1.67;;;;;;;11.77;76.83;98632.47;2613361;28;20076;-81
2023/06/05 00:55:08;;;;;;;2.33;1.70;;;;;;;11.77;77.67;98629.84;2613872;28;20056;-81
2023/06/05 00:56:23;;;;;;;2.63;1.60;;;;;;;11.70;77.40;98634.41;2600947;28;20580;-82
2023/06/05 00:57:39;;;;;;;2.17;1.58;;;;;;;11.76;75.65;98635.97;2607188;28;20049;-82
2023/06/05 00:58:58;;;;;;;2.53;1.75;;;;;;;11.64;77.83;98631.97;2613874;28;20056;-81
2023/06/05 01:00:14;;;;;;;2.50;1.73;;;;;;;11.71;78.48;98628.25;2614293;28;20538;-82
2023/06/05 01:01:29;;;;;;;4.03;1.60;;;;;;;11.68;75.98;98636.22;2614735;28;20045;-82
2023/06/05 01:02:45;;;;;;;2.67;1.65;;;;;;;11.78;76.12;98631.53;2613483;28;20114;-82
2023/06/05 01:04:01;;;;;;;3.83;1.73;;;;;;;11.72;77.03;98629.97;2613757;28;20462;-83
2023/06/05 01:05:17;;;;;;;3.38;1.75;;;;;;;11.75;76.17;98639.50;2611343;28;20052;-82
2023/06/05 01:06:33;;;;;;;2.63;1.65;;;;;;;11.77;76.24;98640.31;2612666;28;20056;-82
2023/06/05 01:07:49;;;;;;;3.22;1.80;;;;;;;11.85;76.88;98640.97;2611994;28;20045;-82
2023/06/05 01:09:05;;;;;;;2.08;1.55;;;;;;;11.92;76.34;98646.88;2613653;28;20064;-81
2023/06/05 01:10:21;;;;;;;3.33;2.10;;;;;;;11.92;76.19;98646.00;2602085;28;20518;-82
2023/06/05 01:11:58;;;;;;;2.40;1.80;;;;;;;11.90;75.87;98645.22;2604891;28;20048;-83
2023/06/05 01:13:28;;;;;;;1.80;1.50;;;;;;;11.93;76.80;98645.09;2613427;28;20103;-82
2023/06/05 01:14:48;;;;;;;3.05;1.50;;;;;;;11.65;78.95;98649.44;2612864;28;20053;-82
2023/06/05 01:16:05;;;;;;;2.25;1.50;;;;;;;11.64;81.91;98654.69;2613916;28;20044;-82
2023/06/05 01:17:24;;;;;;;2.05;1.63;;;;;;;11.80;78.41;98655.13;2611880;28;20073;-81
2023/06/05 01:18:40;;;;;;;3.53;1.60;;;;;;;11.75;77.72;98659.66;2613953;28;20075;-82
2023/06/05 01:19:58;;;;;;;2.80;1.85;;;;;;;11.69;78.21;98664.16;2613499;28;20049;-82
2023/06/05 01:21:14;;;;;;;1.98;1.58;;;;;;;11.78;79.71;98660.41;2612136;28;20471;-82
2023/06/05 01:22:30;;;;;;;2.38;1.70;;;;;;;11.65;80.09;98662.53;2613236;28;20049;-82
2023/06/05 01:23:45;;;;;;;3.40;1.63;;;;;;;11.49;81.81;98656.03;2615094;28;20106;-82
2023/06/05 01:25:01;;;;;;;2.15;1.60;;;;;;;11.22;88.44;98655.88;2613153;28;20569;-83
2023/06/05 01:26:22;;;;;;;2.50;1.83;;;;;;;11.09;92.69;98664.06;2611565;28;20052;-81
2023/06/05 01:27:45;;;;;;;3.22;1.70;;;;;;;10.93;92.45;98663.59;2612252;28;20936;-81
2023/06/05 01:29:05;;;;;;;2.78;1.67;;;;;;;11.11;90.39;98667.50;2613381;28;20508;-81
2023/06/05 01:30:33;;;;;;;2.65;1.70;;;;;;;11.18;87.59;98654.25;2613789;28;20068;-82
2023/06/05 01:31:54;;;;;;;3.05;1.60;;;;;;;11.29;87.53;98660.03;2611500;28;20075;-82
2023/06/05 01:33:29;;;;;;;2.72;1.60;;;;;;;11.25;89.25;98653.16;2611780;28;20127;-82
2023/06/05 01:34:48;;;;;;;2.42;1.60;;;;;;;11.34;89.99;98644.19;2611807;28;20282;-82
2023/06/05 01:36:04;;;;;;;3.08;1.65;;;;;;;11.36;87.57;98642.38;2610934;28;20539;-82
2023/06/05 01:37:24;;;;;;;3.33;1.70;;;;;;;11.55;84.63;98647.97;2614682;28;20040;-82
2023/06/05 01:38:42;;;;;;;4.43;2.35;;;;;;;11.57;83.21;98646.16;2611060;28;20057;-82
2023/06/05 01:39:58;;;;;;;2.67;1.60;;;;;;;11.67;84.89;98649.41;2613117;28;20223;-82
2023/06/05 01:41:15;;;;;;;1.83;1.40;;;;;;;11.58;82.96;98653.09;2613431;28;20049;-82
2023/06/05 01:42:31;;;;;;;2.00;1.50;;;;;;;11.73;80.31;98650.06;2612432;28;20170;-82
2023/06/05 01:43:49;;;;;;;2.55;1.80;;;;;;;11.82;81.63;98661.19;2611824;28;20068;-82
2023/06/05 01:45:07;;;;;;;3.17;1.90;;;;;;;11.70;85.41;98662.41;2614532;28;20168;-82
2023/06/05 01:46:23;;;;;;;4.35;1.60;;;;;;;11.75;83.70;98654.41;2612165;28;20045;-82
2023/06/05 01:47:40;;;;;;;3.60;1.80;;;;;;;11.76;82.96;98650.88;2612187;28;20488;-81
2023/06/05 01:48:55;;;;;;;3.58;1.80;;;;;;;11.70;83.82;98651.91;2611524;28;20495;-83
2023/06/05 01:50:14;;;;;;;3.45;1.60;;;;;;;11.46;83.89;98650.88;2612017;28;20057;-83
2023/06/05 01:51:29;;;;;;;2.72;1.75;;;;;;;11.43;87.46;98644.78;2611373;28;20266;-81
2023/06/05 01:52:46;;;;;;;3.08;1.85;;;;;;;11.33;87.70;98650.34;2611284;28;20049;-82
2023/06/05 01:54:01;;;;;;;3.78;1.70;;;;;;;11.46;86.12;98656.09;2612575;28;20077;-82
2023/06/05 01:55:23;;;;;;;2.72;1.85;;;;;;;11.49;86.03;98645.53;2602016;28;20058;-83
2023/06/05 01:56:39;;;;;;;3.88;1.60;;;;;;;11.58;85.75;98647.88;2606292;28;20060;-82
2023/06/05 01:57:55;;;;;;;2.67;1.80;;;;;;;11.54;87.07;98643.63;2611886;28;20048;-83
2023/06/05 01:59:10;;;;;;;2.15;1.60;;;;;;;11.59;82.61;98641.72;2610840;28;20083;-82
2023/06/05 02:00:27;;;;;;;3.35;1.73;;;;;;;11.55;83.82;98650.59;2614134;28;20496;-81
2023/06/05 02:01:44;;;;;;;1.95;1.42;;;;;;;11.57;80.70;98643.53;2612937;28;20488;-82
2023/06/05 02:02:59;;;;;;;3.20;2.00;;;;;;;11.57;81.69;98646.16;2612593;28;20501;-82
2023/06/05 02:04:18;;;;;;;2.20;1.70;;;;;;;11.70;83.24;98644.06;2613842;28;20114;-82
2023/06/05 02:05:34;;;;;;;4.10;1.90;;;;;;;11.73;82.37;98641.34;2613264;28;20500;-81
2023/06/05 02:06:52;;;;;;;2.55;1.58;;;;;;;11.57;87.63;98640.91;2611883;28;20048;-81
2023/06/05 02:08:09;;;;;;;3.40;1.83;;;;;;;11.59;84.01;98641.72;2614286;28;20083;-81
2023/06/05 02:09:24;;;;;;;3.63;1.70;;;;;;;11.63;81.24;98638.13;2612941;28;20051;-82
2023/06/05 02:10:44;;;;;;;3.00;1.70;;;;;;;11.66;83.52;98645.91;2603831;28;20053;-83
2023/06/05 02:12:03;;;;;;;3.10;1.80;;;;;;;11.61;83.05;98647.81;2595646;28;20115;-82
2023/06/05 02:13:19;;;;;;;2.78;1.92;;;;;;;11.62;84.67;98643.41;2606517;28;20422;-81
2023/06/05 02:14:38;;;;;;;2.60;1.60;;;;;;;11.62;84.65;98632.91;2614775;28;20131;-81
2023/06/05 02:15:56;;;;;;;2.55;2.20;;;;;;;11.51;86.23;98636.69;2612333;28;20107;-82
2023/06/05 02:17:13;;;;;;;2.50;1.50;;;;;;;11.47;84.14;98636.84;2612854;28;20083;-83
2023/06/05 02:18:30;;;;;;;3.67;2.22;;;;;;;11.41;85.65;98623.00;2612466;28;20045;-81
2023/06/05 02:19:46;;;;;;;3.22;1.90;;;;;;;11.47;86.15;98626.38;2614116;28;20131;-82
2023/06/05 02:21:02;;;;;;;3.20;1.80;;;;;;;11.46;83.35;98627.28;2614762;28;20053;-82
2023/06/05 02:22:18;;;;;;;2.20;1.70;;;;;;;11.43;85.10;98630.84;2614832;28;20541;-82
2023/06/05 02:23:33;;;;;;;3.13;1.70;;;;;;;11.27;84.86;98625.16;2613511;28;20048;-82
2023/06/05 02:24:51;;;;;;;2.83;1.75;;;;;;;11.32;85.33;98625.91;2615300;28;20129;-82
2023/06/05 02:26:07;;;;;;;4.90;2.53;;;;;;;11.35;85.52;98622.31;2616480;28;20101;-82
2023/06/05 02:27:24;;;;;;;2.38;1.70;;;;;;;11.41;84.58;98620.38;2612757;28;20106;-82
2023/06/05 02:28:39;;;;;;;2.10;1.50;;;;;;;11.42;83.35;98624.72;2613466;28;20049;-82
2023/06/05 02:29:55;;;;;;;1.98;1.70;;;;;;;11.41;83.44;98623.00;2614046;28;20938;-81
2023/06/05 02:31:16;;;;;;;2.42;1.70;;;;;;;11.44;85.20;98624.69;2615390;28;20063;-82
2023/06/05 02:32:31;;;;;;;2.50;1.92;;;;;;;11.45;84.53;98623.78;2615509;28;20061;-82
2023/06/05 02:33:47;;;;;;;2.97;1.88;;;;;;;11.43;86.88;98626.44;2616403;28;20106;-82
2023/06/05 02:35:04;;;;;;;2.50;1.75;;;;;;;11.41;84.77;98628.25;2613628;28;20057;-82
2023/06/05 02:36:23;;;;;;;3.78;1.85;;;;;;;11.33;84.94;98635.47;2616684;28;20135;-82
2023/06/05 02:37:44;;;;;;;2.63;1.73;;;;;;;11.27;83.01;98636.50;2615577;28;20063;-82
2023/06/05 02:39:01;;;;;;;3.80;1.75;;;;;;;10.98;89.86;98632.91;2614480;28;20633;-82
2023/06/05 02:40:17;;;;;;;2.67;1.95;;;;;;;11.24;88.20;98623.47;2613212;28;20484;-82
2023/06/05 02:41:32;;;;;;;2.80;1.73;;;;;;;11.23;88.22;98624.38;2615609;28;20045;-81
2023/06/05 02:42:48;;;;;;;2.50;1.75;;;;;;;11.34;86.06;98623.22;2614286;28;20048;-81
2023/06/05 02:44:04;;;;;;;2.53;1.52;;;;;;;11.07;90.10;98629.19;2614324;28;20523;-82
2023/06/05 02:45:19;;;;;;;2.85;2.13;;;;;;;11.16;90.33;98628.91;2613776;28;20190;-83
2023/06/05 02:46:35;;;;;;;2.45;1.75;;;;;;;11.22;88.69;98622.66;2614009;28;20057;-81
2023/06/05 02:47:51;;;;;;;3.00;1.52;;;;;;;11.22;90.06;98629.66;2613224;28;20045;-82
2023/06/05 02:49:06;;;;;;;4.28;1.85;;;;;;;11.28;88.47;98622.50;2614863;28;20097;-81
2023/06/05 02:50:22;;;;;;;3.35;2.00;;;;;;;11.39;86.26;98622.19;2612920;28;20052;-82
2023/06/05 02:51:37;;;;;;;2.53;1.80;;;;;;;11.37;87.01;98618.75;2616434;28;20323;-82
2023/06/05 02:52:53;;;;;;;2.63;1.70;;;;;;;11.48;86.54;98622.84;2615916;28;20049;-82
2023/06/05 02:54:09;;;;;;;2.95;1.80;;;;;;;11.57;86.54;98626.03;2613827;28;20052;-82
2023/06/05 02:55:29;;;;;;;5.47;1.90;;;;;;;11.53;86.94;98619.19;2612635;28;20053;-82
2023/06/05 02:56:45;;;;;;;2.72;1.58;;;;;;;11.43;88.35;98620.34;2614820;28;20048;-82
2023/06/05 02:58:01;;;;;;;3.10;1.88;;;;;;;11.33;88.10;98617.13;2614414;28;20056;-82
2023/06/05 02:59:16;;;;;;;3.70;1.88;;;;;;;11.37;89.65;98618.75;2614122;28;20614;-84
2023/06/05 03:00:31;;;;;;;3.20;1.75;;;;;;;11.38;85.82;98612.59;2614026;28;20071;-84
2023/06/05 03:01:48;;;;;;;2.95;1.83;;;;;;;11.37;87.55;98615.25;2615919;28;20082;-83
2023/06/05 03:03:06;;;;;;;3.20;1.73;;;;;;;11.41;86.77;98617.75;2613510;28;20580;-82
2023/06/05 03:04:23;;;;;;;2.22;1.70;;;;;;;11.51;88.01;98614.88;2613037;28;20053;-83
2023/06/05 03:05:40;;;;;;;3.47;1.83;;;;;;;11.52;88.60;98617.44;2615529;28;20079;-83
2023/06/05 03:06:56;;;;;;;2.45;1.80;;;;;;;11.49;89.78;98614.06;2612397;28;20536;-82
2023/06/05 03:08:12;;;;;;;2.95;1.90;;;;;;;11.34;90.46;98616.22;2612584;28;20048;-83
2023/06/05 03:09:27;;;;;;;3.30;1.75;;;;;;;11.36;87.36;98618.78;2614119;28;20048;-83
2023/06/05 03:10:43;;;;;;;2.65;1.95;;;;;;;11.33;90.72;98618.88;2615064;28;20052;-82
2023/06/05 03:11:58;;;;;;;2.38;1.52;;;;;;;11.29;93.23;98623.34;2615174;28;20055;-82
2023/06/05 03:13:14;;;;;;;3.25;2.00;;;;;;;11.39;92.48;98616.94;2612669;28;20048;-82
2023/06/05 03:14:32;;;;;;;3.63;1.77;;;;;;;11.43;88.88;98621.19;2614203;28;20642;-82
2023/06/05 03:15:48;;;;;;;2.63;1.67;;;;;;;11.49;86.68;98612.28;2613345;28;20531;-82
2023/06/05 03:17:04;;;;;;;4.25;2.00;;;;;;;11.51;89.24;98607.00;2615351;28;20061;-82
2023/06/05 03:18:23;;;;;;;3.50;1.83;;;;;;;11.40;87.26;98609.94;2612820;28;20077;-83
2023/06/05 03:19:38;;;;;;;5.30;1.80;;;;;;;11.40;89.83;98612.56;2615820;28;20052;-81
2023/06/05 03:20:54;;;;;;;4.22;1.92;;;;;;;11.48;85.98;98615.81;2616050;28;20044;-81
2023/06/05 03:22:11;;;;;;;3.10;2.00;;;;;;;11.53;89.52;98615.69;2613823;28;20072;-81
2023/06/05 03:23:28;;;;;;;3.33;1.63;;;;;;;11.45;92.03;98610.66;2612364;28;20059;-82
2023/06/05 03:24:43;;;;;;;2.97;1.70;;;;;;;11.52;88.48;98613.97;2614844;28;20045;-81
2023/06/05 03:25:59;;;;;;;3.85;2.03;;;;;;;11.53;87.21;98616.56;2614812;28;20107;-81
2023/06/05 03:27:15;;;;;;;2.33;1.80;;;;;;;11.58;89.21;98613.78;2614403;28;20048;-81
2023/06/05 03:28:33;;;;;;;3.75;1.63;;;;;;;11.57;90.60;98615.56;2614242;28;20080;-81
2023/06/05 03:29:49;;;;;;;2.13;1.55;;;;;;;11.55;87.63;98613.88;2612328;28;20049;-81
2023/06/05 03:31:04;;;;;;;2.55;1.83;;;;;;;11.57;86.82;98620.81;2613668;28;20060;-82
2023/06/05 03:32:20;;;;;;;4.70;1.98;;;;;;;11.65;89.83;98614.47;2614445;28;21523;-82
2023/06/05 03:33:36;;;;;;;6.50;1.85;;;;;;;11.48;93.38;98612.34;2613810;28;20981;-81
2023/06/05 03:34:51;;;;;;;4.45;2.30;;;;;;;11.44;95.96;98608.94;2615023;28;20048;-82
2023/06/05 03:36:07;;;;;;;2.70;1.73;;;;;;;11.28;95.60;98609.38;2614432;28;20052;-81
2023/06/05 03:37:23;;;;;;;3.10;1.80;;;;;;;11.37;96.63;98616.13;2613344;28;20151;-81
2023/06/05 03:38:38;;;;;;;6.40;1.90;;;;;;;11.48;96.41;98609.72;2613830;28;20515;-82
2023/06/05 03:39:54;;;;;;;2.75;1.70;;;;;;;11.55;94.27;98611.25;2614616;28;20130;-81
2023/06/05 03:41:10;;;;;;;3.35;1.75;;;;;;;11.68;93.32;98611.75;2612857;28;20056;-82
2023/06/05 03:42:26;;;;;;;5.40;2.13;;;;;;;11.73;92.65;98609.84;2612730;28;20082;-81
2023/06/05 03:43:41;;;;;;;5.28;2.25;;;;;;;11.73;91.69;98613.34;2615725;28;20903;-81
2023/06/05 03:44:57;;;;;;;4.38;1.85;;;;;;;11.70;91.01;98616.03;2612869;28;20485;-81
2023/06/05 03:46:18;;;;;;;3.25;2.25;;;;;;;11.78;90.64;98620.22;2613376;28;20055;-83
2023/06/05 03:47:34;;;;;;;4.63;1.92;;;;;;;11.64;92.84;98613.63;2612407;28;20527;-83
2023/06/05 03:48:49;;;;;;;4.63;1.80;;;;;;;11.72;91.29;98618.63;2612244;28;20322;-82
2023/06/05 03:50:06;;;;;;;3.13;1.90;;;;;;;11.68;88.96;98617.84;2614149;28;20544;-82
2023/06/05 03:51:21;;;;;;;2.70;1.80;;;;;;;11.66;91.44;98619.66;2611912;28;20044;-82
2023/06/05 03:52:39;;;;;;;3.05;1.90;;;;;;;11.62;92.88;98625.03;2613613;28;20076;-82
2023/06/05 03:53:57;;;;;;;4.63;1.90;;;;;;;11.57;90.72;98612.06;2614240;28;20127;-81
2023/06/05 03:55:13;;;;;;;3.03;1.95;;;;;;;11.59;89.74;98620.75;2612105;28;20052;-82
2023/06/05 03:56:33;;;;;;;5.10;1.75;;;;;;;11.64;93.92;98625.84;2614900;28;20420;-82
2023/06/05 03:57:49;;;;;;;6.82;2.30;;;;;;;11.72;95.02;98622.09;2612862;28;20534;-82
2023/06/05 03:59:18;;;;;;;3.90;1.95;;;;;;;11.77;93.32;98623.75;2612379;28;20071;-81
2023/06/05 04:00:34;;;;;;;5.13;2.15;;;;;;;11.82;92.13;98629.69;2612528;28;20045;-81
2023/06/05 04:01:50;;;;;;;4.63;2.00;;;;;;;11.72;92.94;98627.34;2613988;28;20455;-81
2023/06/05 04:03:05;;;;;;;5.45;2.00;;;;;;;11.85;92.57;98630.47;2612344;28;20167;-81
2023/06/05 04:04:21;;;;;;;4.18;2.20;;;;;;;11.96;90.20;98627.50;2614903;28;20102;-81
2023/06/05 04:05:38;;;;;;;4.32;2.00;;;;;;;11.96;88.16;98635.38;2613981;28;20081;-81
2023/06/05 04:06:55;;;;;;;2.38;1.83;;;;;;;12.04;89.32;98639.59;2614993;28;20509;-81
2023/06/05 04:08:11;;;;;;;3.15;1.75;;;;;;;12.07;89.67;98627.22;2615381;28;20048;-81
2023/06/05 04:09:26;;;;;;;2.60;1.80;;;;;;;12.15;90.31;98632.22;2612989;28;20076;-81
2023/06/05 04:10:42;;;;;;;3.83;1.92;;;;;;;12.29;87.74;98632.66;2613065;28;20419;-81
2023/06/05 04:11:58;;;;;;;2.90;1.75;;;;;;;12.22;87.15;98636.38;2615507;28;20041;-81
2023/06/05 04:13:14;;;;;;;7.50;1.80;;;;;;;12.23;88.88;98645.13;2613822;28;20144;-81
2023/06/05 04:14:29;;;;;;;7.28;2.08;;;;;;;12.21;87.13;98645.16;2612808;28;20040;-81
2023/06/05 04:15:45;;;;;;;2.50;1.77;;;;;;;12.25;88.24;98644.16;2612186;28;20052;-81
2023/06/05 04:17:01;;;;;;;5.22;2.20;;;;;;;12.41;86.68;98641.03;2612500;28;20052;-82
2023/06/05 04:18:16;;;;;;;5.85;1.90;;;;;;;12.35;86.52;98641.25;2611901;28;20057;-82
2023/06/05 04:19:32;;;;;;;4.53;1.65;;;;;;;12.28;85.17;98643.22;2614610;28;20048;-82
2023/06/05 04:20:47;;;;;;;4.68;1.88;;;;;;;12.52;84.44;98640.72;2612550;28;20048;-82
2023/06/05 04:22:03;;;;;;;3.33;1.85;;;;;;;12.43;84.11;98640.09;2613160;28;20381;-82
2023/06/05 04:23:19;;;;;;;2.63;2.20;;;;;;;12.45;83.20;98641.78;2613713;28;20103;-82
2023/06/05 04:24:34;;;;;;;4.05;1.95;;;;;;;12.33;84.71;98645.69;2611935;28;20041;-82
2023/06/05 04:25:54;;;;;;;4.38;1.90;;;;;;;12.39;85.21;98640.22;2614975;28;20055;-81
2023/06/05 04:27:10;;;;;;;3.00;2.00;;;;;;;12.46;87.36;98643.50;2613509;28;20055;-82
2023/06/05 04:28:26;;;;;;;3.00;2.10;;;;;;;12.45;87.42;98636.53;2602310;28;20037;-81
2023/06/05 04:29:41;;;;;;;3.03;2.00;;;;;;;12.53;86.40;98638.00;2606352;28;20098;-83
2023/06/05 04:30:57;;;;;;;4.15;1.88;;;;;;;12.61;84.32;98637.75;2612146;28;20049;-82
2023/06/05 04:32:13;;;;;;;3.53;1.85;;;;;;;12.60;86.80;98643.06;2612274;28;20041;-82
2023/06/05 04:33:29;;;;;;;3.75;1.90;;;;;;;12.59;86.11;98641.38;2612083;28;20077;-82
2023/06/05 04:34:45;;;;;;;3.55;1.90;;;;;;;12.65;84.10;98641.16;2613162;28;20052;-82
2023/06/05 04:36:01;;;;;;;2.72;1.92;;;;;;;12.74;85.24;98639.97;2611987;28;20233;-82
2023/06/05 04:37:16;;;;;;;4.15;1.90;;;;;;;12.68;83.90;98639.28;2613994;28;20090;-82
2023/06/05 04:38:32;;;;;;;3.83;1.80;;;;;;;12.76;84.62;98641.66;2612946;28;20053;-82
2023/06/05 04:39:48;;;;;;;4.85;1.90;;;;;;;12.74;85.89;98648.72;2600383;28;20046;-82
2023/06/05 04:41:04;;;;;;;3.28;2.00;;;;;;;12.88;84.53;98636.91;2607425;28;20496;-82
2023/06/05 04:42:21;;;;;;;4.15;1.77;;;;;;;12.79;84.71;98635.44;2612082;28;20040;-82
2023/06/05 04:43:36;;;;;;;6.13;1.75;;;;;;;12.75;83.86;98636.44;2613067;28;20105;-83
2023/06/05 04:45:01;;;;;;;4.20;1.90;;;;;;;12.87;82.15;98635.19;2614826;28;20463;-82
2023/06/05 04:46:16;;;;;;;4.10;2.20;;;;;;;12.64;84.60;98637.69;2613714;28;20556;-82
2023/06/05 04:47:32;;;;;;;4.00;2.13;;;;;;;12.73;84.19;98631.25;2612364;28;20047;-82
2023/06/05 04:48:48;;;;;;;3.95;2.15;;;;;;;12.69;84.69;98627.00;2612227;28;20532;-82
2023/06/05 04:50:05;;;;;;;3.70;2.00;;;;;;;12.71;84.08;98628.66;2614712;28;20508;-82
2023/06/05 04:51:22;;;;;;;6.60;1.80;;;;;;;12.62;85.50;98634.22;2611370;28;20092;-81
2023/06/05 04:52:40;;;;;;;4.10;1.98;;;;;;;12.83;83.44;98626.53;2613417;28;20156;-81
2023/06/05 04:53:55;;;;;;;5.22;1.90;;;;;;;12.75;85.42;98634.69;2613573;28;20048;-82
2023/06/05 04:55:11;;;;;;;3.88;2.05;;;;;;;12.97;82.81;98626.03;2613333;28;20045;-82
2023/06/05 04:56:26;;;;;;;4.95;2.22;;;;;;;12.83;81.88;98627.38;2612809;28;20080;-82
2023/06/05 04:57:42;;;;;;;3.80;2.22;;;;;;;12.92;81.50;98635.88;2612518;28;20045;-83
2023/06/05 04:58:59;;;;;;;5.32;2.00;;;;;;;12.91;84.08;98628.91;2610773;28;20044;-82
2023/06/05 05:00:15;;;;;;;5.20;1.90;;;;;;;13.10;82.93;98629.97;2613602;28;20079;-82
2023/06/05 05:01:31;;;;;;;4.18;1.85;;;;;;;13.08;82.62;98629.16;2613543;28;20560;-82
2023/06/05 05:02:46;;;;;;;3.03;2.10;;;;;;;13.13;84.24;98629.00;2612832;28;20087;-83
2023/06/05 05:04:02;;;;;;;3.55;1.83;;;;;;;13.21;81.10;98634.84;2611278;28;20102;-82
2023/06/05 05:05:18;;;;;;;4.13;2.03;;;;;;;13.02;84.23;98637.28;2613161;28;20064;-82
2023/06/05 05:06:33;;;;;;;3.40;2.30;;;;;;;12.99;86.36;98638.22;2613081;28;20045;-82
2023/06/05 05:07:49;;;;;;;4.65;2.20;;;;;;;12.98;85.91;98631.25;2611556;28;20049;-82
2023/06/05 05:09:05;;;;;;;5.18;2.10;;;;;;;12.98;86.84;98636.50;2613898;28;20500;-82
2023/06/05 05:10:20;;;;;;;3.58;2.20;;;;;;;12.90;86.57;98632.44;2612356;28;20551;-82
2023/06/05 05:11:36;;;;;;;4.60;2.08;;;;;;;13.12;85.49;98625.50;2602381;28;20037;-82
2023/06/05 05:12:52;;;;;;;3.58;2.08;;;;;;;13.17;83.89;98637.66;2608218;28;20092;-83
2023/06/05 05:14:07;;;;;;;2.45;2.15;;;;;;;13.27;81.94;98626.72;2614329;28;20524;-83
2023/06/05 05:15:23;;;;;;;3.45;2.00;;;;;;;13.07;84.10;98629.22;2613874;28;20052;-82
2023/06/05 05:16:39;;;;;;;3.67;2.08;;;;;;;13.00;83.43;98639.09;2612936;28;20053;-82
2023/06/05 05:17:56;;;;;;;3.80;2.08;;;;;;;13.11;83.32;98630.84;2612511;28;20045;-82
2023/06/05 05:19:12;;;;;;;3.15;1.80;;;;;;;13.32;80.70;98631.84;2614450;28;20110;-82
2023/06/05 05:20:29;;;;;;;4.43;2.00;;;;;;;13.32;81.50;98631.84;2611527;28;20045;-82
2023/06/05 05:21:46;;;;;;;3.08;2.00;;;;;;;13.33;80.11;98635.31;2613623;28;20053;-82
2023/06/05 05:23:02;;;;;;;3.78;2.15;;;;;;;13.21;82.47;98631.34;2611508;28;20136;-82
2023/06/05 05:24:18;;;;;;;3.58;1.83;;;;;;;13.21;81.23;98636.63;2611973;28;20045;-83
2023/06/05 05:25:33;;;;;;;3.05;1.90;;;;;;;13.22;83.10;98643.59;2611300;28;20082;-82
2023/06/05 05:26:50;;;;;;;5.25;2.05;;;;;;;13.34;81.36;98637.88;2612181;28;20467;-80
2023/06/05 05:28:06;;;;;;;4.75;1.80;;;;;;;13.44;81.78;98634.97;2613614;28;20068;-81
2023/06/05 05:29:22;;;;;;;3.03;1.92;;;;;;;13.57;82.11;98633.59;2613510;28;20052;-82
2023/06/05 05:30:37;;;;;;;4.03;1.90;;;;;;;13.27;86.52;98639.88;2613550;28;20077;-82
2023/06/05 05:31:53;;;;;;;3.85;1.85;;;;;;;13.58;84.93;98634.44;2611747;28;20095;-81
2023/06/05 05:33:08;;;;;;;3.13;1.80;;;;;;;13.56;84.14;98631.88;2611534;28;20455;-82
2023/06/05 05:34:27;;;;;;;3.70;2.10;;;;;;;13.67;83.59;98634.94;2612271;28;20052;-82
2023/06/05 05:35:42;;;;;;;3.20;1.90;;;;;;;13.87;79.84;98633.34;2613877;28;20095;-82
2023/06/05 05:36:58;;;;;;;4.43;1.80;;;;;;;13.87;82.18;98635.97;2613836;28;20056;-81
2023/06/05 05:38:15;;;;;;;2.90;2.05;;;;;;;13.83;80.02;98631.75;2611400;28;20048;-81
2023/06/05 07:11:41;;;;;;;7.78;2.45;;;;;;;19.54;51.92;98604.41;2601212;28;20096;-82
2023/06/05 07:12:57;;;;;;;6.63;2.90;;;;;;;19.75;51.54;98606.69;2614679;28;20424;-82
2023/06/05 07:14:12;;;;;;;6.57;2.80;;;;;;;19.75;51.40;98604.88;2613418;28;20041;-83
2023/06/05 07:15:28;;;;;;;4.97;2.78;;;;;;;19.70;52.27;98606.13;2613000;28;20107;-81
2023/06/05 07:16:43;;;;;;;4.30;2.60;;;;;;;19.72;53.59;98604.22;2615421;28;20060;-83
2023/06/05 07:17:59;;;;;;;8.65;3.20;;;;;;;20.06;53.21;98606.56;2615442;28;20052;-82
2023/06/05 07:19:15;;;;;;;3.90;2.80;;;;;;;20.39;52.77;98611.47;2612535;28;20090;-82
2023/06/05 07:20:31;;;;;;;4.80;2.88;;;;;;;20.48;51.02;98601.19;2613272;28;20110;-83
2023/06/05 07:21:46;;;;;;;7.97;2.85;;;;;;;20.69;51.09;98610.41;2613528;28;20048;-84
2023/06/05 07:23:02;;;;;;;6.85;3.60;;;;;;;20.70;51.50;98605.91;2612321;28;20190;-82
2023/06/05 07:24:18;;;;;;;4.63;3.05;;;;;;;20.86;50.82;98603.94;2602527;28;20056;-83
2023/06/05 07:25:33;;;;;;;5.35;3.17;;;;;;;20.87;49.72;98600.31;2609071;28;20051;-82
2023/06/05 07:26:50;;;;;;;7.53;3.40;;;;;;;20.66;51.62;98601.75;2612315;28;20045;-82
2023/06/05 07:28:09;;;;;;;5.70;3.47;;;;;;;20.75;50.70;98601.16;2613827;28;20072;-82
2023/06/05 07:29:25;;;;;;;4.95;3.40;;;;;;;20.52;51.67;98605.34;2612120;28;20110;-82
2023/06/05 07:30:43;;;;;;;7.10;4.07;;;;;;;21.05;51.60;98596.50;2614052;28;20095;-82
2023/06/05 07:31:59;;;;;;;6.03;3.38;;;;;;;20.22;52.24;98598.44;2612359;28;20041;-83
2023/06/05 07:33:15;;;;;;;5.72;3.65;;;;;;;20.92;51.25;98602.69;2613616;28;20061;-82